This is the latest recevied weather packets stored in our database for station/object Riedlingn. If no packets are shown the sender has not sent any weather packets the latest 10 day(s).
| Time | Temp. | Humidity | Pressure | Rain* | Wind** | Luminosity | Snow |
|---|---|---|---|---|---|---|---|
| 1788148929 | 15° C | 94% | 1020.7 hPa | 2.54 mm | - | - | - |
| 1788147129 | 15° C | 94% | 1020.5 hPa | 2.54 mm | - | - | - |
| 1788145329 | 15.56° C | 94% | 1020.4 hPa | 2.54 mm | - | - | - |
| 1788143529 | 16.11° C | 93% | 1020.3 hPa | 2.54 mm | - | - | - |
| 1788141729 | 16.11° C | 92% | 1019.9 hPa | 2.54 mm | - | - | - |
| 1788139931 | 16.11° C | 92% | 1020.1 hPa | 2.54 mm | - | - | - |
| 1788138129 | 16.67° C | 91% | 1020.2 hPa | 1.02 mm | - | - | - |
| 1788136332 | 15° C | 92% | 1019 hPa | 0 mm | - | - | - |
| 1788134532 | 15° C | 91% | 1018.6 hPa | 0 mm | - | - | - |
| 1788132731 | 15.56° C | 90% | 1018.5 hPa | 0 mm | - | - | - |
| 1788130931 | 15.56° C | 89% | 1018.5 hPa | 0 mm | - | - | - |
| 1788129131 | 16.11° C | 87% | 1018.9 hPa | 0 mm | - | - | - |
| 1788127331 | 17.22° C | 85% | 1019.2 hPa | 0 mm | - | - | - |
| 1788125531 | 17.78° C | 83% | 1019.2 hPa | 0 mm | - | - | - |
| 1788123730 | 18.33° C | 80% | 1019.3 hPa | 0 mm | - | - | - |
| 1788121931 | 18.89° C | 77% | 1019.2 hPa | 0 mm | - | - | - |
| 1788120131 | 19.44° C | 73% | 1019.2 hPa | 0 mm | - | - | - |
| 1788118330 | 20° C | 73% | 1019.4 hPa | 0 mm | - | - | - |
| 1788116530 | 21.11° C | 70% | 1019.3 hPa | 0 mm | - | - | - |
| 1788114730 | 22.78° C | 67% | 1019 hPa | 0 mm | - | - | - |
| 1788112931 | 23.89° C | 62% | 1018.9 hPa | 0 mm | - | - | - |
| 1788111130 | 25.56° C | 57% | 1018.7 hPa | 0 mm | - | - | - |
| 1788109331 | 26.11° C | 54% | 1018.6 hPa | 0 mm | - | - | - |
| 1788107531 | 26.11° C | 54% | 1018.7 hPa | 0 mm | - | - | - |
| 1788105731 | 25.56° C | 57% | 1018.8 hPa | 0 mm | - | - | - |
* Rain since midnight (hover to see other rain measurements)
** Current wind speed in m/s (hover to see current wind gust speed)